sensor_id;sensor_type;location;lat;lon;timestamp;temperature;humidity
17954;DHT22;9102;53.548;9.926;2023-04-28T00:00:17;7.40;99.90
17954;DHT22;9102;53.548;9.926;2023-04-28T00:02:44;7.50;99.90
17954;DHT22;9102;53.548;9.926;2023-04-28T00:05:13;7.50;99.90
17954;DHT22;9102;53.548;9.926;2023-04-28T00:07:42;7.50;99.90
17954;DHT22;9102;53.548;9.926;2023-04-28T00:10:09;7.40;99.90
17954;DHT22;9102;53.548;9.926;2023-04-28T00:12:36;7.40;99.90
17954;DHT22;9102;53.548;9.926;2023-04-28T00:15:03;7.40;99.90
17954;DHT22;9102;53.548;9.926;2023-04-28T00:17:30;7.40;99.90
17954;DHT22;9102;53.548;9.926;2023-04-28T00:19:57;7.30;99.90
17954;DHT22;9102;53.548;9.926;2023-04-28T00:22:24;7.40;99.90
17954;DHT22;9102;53.548;9.926;2023-04-28T00:24:52;7.40;99.90
17954;DHT22;9102;53.548;9.926;2023-04-28T00:27:19;7.30;99.90
17954;DHT22;9102;53.548;9.926;2023-04-28T00:29:46;7.40;99.90
17954;DHT22;9102;53.548;9.926;2023-04-28T00:32:13;7.20;99.90
17954;DHT22;9102;53.548;9.926;2023-04-28T00:34:40;7.20;99.90
17954;DHT22;9102;53.548;9.926;2023-04-28T00:37:07;7.10;99.90
17954;DHT22;9102;53.548;9.926;2023-04-28T00:39:33;7.10;99.90
17954;DHT22;9102;53.548;9.926;2023-04-28T00:42:02;7.00;99.90
17954;DHT22;9102;53.548;9.926;2023-04-28T00:44:29;7.00;99.90
17954;DHT22;9102;53.548;9.926;2023-04-28T00:46:56;7.00;99.90
17954;DHT22;9102;53.548;9.926;2023-04-28T00:49:24;7.00;99.90
17954;DHT22;9102;53.548;9.926;2023-04-28T00:51:51;7.00;99.90
17954;DHT22;9102;53.548;9.926;2023-04-28T00:54:18;7.00;99.90
17954;DHT22;9102;53.548;9.926;2023-04-28T00:56:44;7.00;99.90
17954;DHT22;9102;53.548;9.926;2023-04-28T00:59:13;6.90;99.90
17954;DHT22;9102;53.548;9.926;2023-04-28T01:01:40;6.90;99.90
17954;DHT22;9102;53.548;9.926;2023-04-28T01:04:07;7.00;99.90
17954;DHT22;9102;53.548;9.926;2023-04-28T01:06:35;6.90;99.90
17954;DHT22;9102;53.548;9.926;2023-04-28T01:09:02;6.90;99.90
17954;DHT22;9102;53.548;9.926;2023-04-28T01:11:30;7.00;99.90
17954;DHT22;9102;53.548;9.926;2023-04-28T01:13:57;7.00;99.90
17954;DHT22;9102;53.548;9.926;2023-04-28T01:16:26;7.00;99.90
17954;DHT22;9102;53.548;9.926;2023-04-28T01:18:53;7.00;99.90
17954;DHT22;9102;53.548;9.926;2023-04-28T01:21:25;7.00;99.90
17954;DHT22;9102;53.548;9.926;2023-04-28T01:23:55;6.90;99.90
17954;DHT22;9102;53.548;9.926;2023-04-28T01:26:22;6.80;99.90
17954;DHT22;9102;53.548;9.926;2023-04-28T01:28:49;6.80;99.90
17954;DHT22;9102;53.548;9.926;2023-04-28T01:31:16;6.80;99.90
17954;DHT22;9102;53.548;9.926;2023-04-28T01:33:42;6.80;99.90
17954;DHT22;9102;53.548;9.926;2023-04-28T01:36:09;6.80;99.90
17954;DHT22;9102;53.548;9.926;2023-04-28T01:38:36;6.70;99.90
17954;DHT22;9102;53.548;9.926;2023-04-28T01:41:04;6.70;99.90
17954;DHT22;9102;53.548;9.926;2023-04-28T01:43:31;6.70;99.90
17954;DHT22;9102;53.548;9.926;2023-04-28T01:45:58;6.70;99.90
17954;DHT22;9102;53.548;9.926;2023-04-28T01:48:25;6.60;99.90
17954;DHT22;9102;53.548;9.926;2023-04-28T01:50:52;6.60;99.90
17954;DHT22;9102;53.548;9.926;2023-04-28T01:53:19;6.60;99.90
17954;DHT22;9102;53.548;9.926;2023-04-28T01:55:45;6.60;99.90
17954;DHT22;9102;53.548;9.926;2023-04-28T01:58:14;6.70;99.90
17954;DHT22;9102;53.548;9.926;2023-04-28T02:00:40;6.50;99.90
17954;DHT22;9102;53.548;9.926;2023-04-28T02:03:07;6.60;99.90
17954;DHT22;9102;53.548;9.926;2023-04-28T02:05:34;6.60;99.90
17954;DHT22;9102;53.548;9.926;2023-04-28T02:08:01;6.50;99.90
17954;DHT22;9102;53.548;9.926;2023-04-28T02:10:28;6.60;99.90
17954;DHT22;9102;53.548;9.926;2023-04-28T02:12:55;6.60;99.90
17954;DHT22;9102;53.548;9.926;2023-04-28T02:15:23;6.50;99.90
17954;DHT22;9102;53.548;9.926;2023-04-28T02:17:50;6.50;99.90
17954;DHT22;9102;53.548;9.926;2023-04-28T02:20:17;6.60;99.90
17954;DHT22;9102;53.548;9.926;2023-04-28T02:22:44;6.60;99.90
17954;DHT22;9102;53.548;9.926;2023-04-28T02:25:11;6.50;99.90
17954;DHT22;9102;53.548;9.926;2023-04-28T02:27:37;6.50;99.90
17954;DHT22;9102;53.548;9.926;2023-04-28T02:30:05;6.50;99.90
17954;DHT22;9102;53.548;9.926;2023-04-28T02:32:34;6.50;99.90
17954;DHT22;9102;53.548;9.926;2023-04-28T02:35:00;6.50;99.90
17954;DHT22;9102;53.548;9.926;2023-04-28T02:37:27;6.50;99.90
17954;DHT22;9102;53.548;9.926;2023-04-28T02:39:54;6.50;99.90
17954;DHT22;9102;53.548;9.926;2023-04-28T02:42:21;6.40;99.90
17954;DHT22;9102;53.548;9.926;2023-04-28T02:44:48;6.40;99.90
17954;DHT22;9102;53.548;9.926;2023-04-28T02:47:15;6.40;99.90
17954;DHT22;9102;53.548;9.926;2023-04-28T02:49:43;6.40;99.90
17954;DHT22;9102;53.548;9.926;2023-04-28T02:52:10;6.40;99.90
17954;DHT22;9102;53.548;9.926;2023-04-28T02:54:37;6.30;99.90
17954;DHT22;9102;53.548;9.926;2023-04-28T02:57:04;6.30;99.90
17954;DHT22;9102;53.548;9.926;2023-04-28T02:59:30;6.20;99.90
17954;DHT22;9102;53.548;9.926;2023-04-28T03:01:57;6.20;99.90
17954;DHT22;9102;53.548;9.926;2023-04-28T03:04:24;6.10;99.90
17954;DHT22;9102;53.548;9.926;2023-04-28T03:06:53;6.20;99.90
17954;DHT22;9102;53.548;9.926;2023-04-28T03:09:20;6.20;99.90
17954;DHT22;9102;53.548;9.926;2023-04-28T03:11:47;6.20;99.90
17954;DHT22;9102;53.548;9.926;2023-04-28T03:14:13;6.10;99.90
17954;DHT22;9102;53.548;9.926;2023-04-28T03:16:40;6.20;99.90
17954;DHT22;9102;53.548;9.926;2023-04-28T03:19:07;6.10;99.90
17954;DHT22;9102;53.548;9.926;2023-04-28T03:21:34;6.10;99.90
17954;DHT22;9102;53.548;9.926;2023-04-28T03:24:02;6.10;99.90
17954;DHT22;9102;53.548;9.926;2023-04-28T03:26:29;6.00;99.90
17954;DHT22;9102;53.548;9.926;2023-04-28T03:28:56;6.00;99.90
17954;DHT22;9102;53.548;9.926;2023-04-28T03:31:23;6.10;99.90
17954;DHT22;9102;53.548;9.926;2023-04-28T03:33:50;6.00;99.90
17954;DHT22;9102;53.548;9.926;2023-04-28T03:36:17;5.90;99.90
17954;DHT22;9102;53.548;9.926;2023-04-28T03:38:46;5.90;99.90
17954;DHT22;9102;53.548;9.926;2023-04-28T03:41:15;5.90;99.90
17954;DHT22;9102;53.548;9.926;2023-04-28T03:43:41;5.90;99.90
17954;DHT22;9102;53.548;9.926;2023-04-28T03:46:08;6.00;99.90
17954;DHT22;9102;53.548;9.926;2023-04-28T03:48:35;5.90;99.90
17954;DHT22;9102;53.548;9.926;2023-04-28T03:51:02;5.80;99.90
17954;DHT22;9102;53.548;9.926;2023-04-28T03:53:29;5.90;99.90
17954;DHT22;9102;53.548;9.926;2023-04-28T03:55:56;5.90;99.90
17954;DHT22;9102;53.548;9.926;2023-04-28T03:58:24;5.90;99.90
17954;DHT22;9102;53.548;9.926;2023-04-28T04:00:51;5.90;99.90
17954;DHT22;9102;53.548;9.926;2023-04-28T04:03:18;5.80;99.90
17954;DHT22;9102;53.548;9.926;2023-04-28T04:05:46;5.90;99.90
17954;DHT22;9102;53.548;9.926;2023-04-28T04:08:13;5.90;99.90
17954;DHT22;9102;53.548;9.926;2023-04-28T04:10:40;5.90;99.90
17954;DHT22;9102;53.548;9.926;2023-04-28T04:13:06;5.90;99.90
17954;DHT22;9102;53.548;9.926;2023-04-28T04:15:35;5.90;99.90
17954;DHT22;9102;53.548;9.926;2023-04-28T04:18:01;5.90;99.90
17954;DHT22;9102;53.548;9.926;2023-04-28T04:20:28;5.90;99.90
17954;DHT22;9102;53.548;9.926;2023-04-28T04:22:55;5.80;99.90
17954;DHT22;9102;53.548;9.926;2023-04-28T04:25:22;5.80;99.90
17954;DHT22;9102;53.548;9.926;2023-04-28T04:27:49;5.70;99.90
17954;DHT22;9102;53.548;9.926;2023-04-28T04:30:16;5.70;99.90
17954;DHT22;9102;53.548;9.926;2023-04-28T04:32:45;5.90;99.90
17954;DHT22;9102;53.548;9.926;2023-04-28T04:35:11;5.90;99.90
17954;DHT22;9102;53.548;9.926;2023-04-28T04:37:39;5.90;99.90
17954;DHT22;9102;53.548;9.926;2023-04-28T04:40:06;5.90;99.90
17954;DHT22;9102;53.548;9.926;2023-04-28T04:42:33;6.00;99.90
17954;DHT22;9102;53.548;9.926;2023-04-28T04:45:00;6.00;99.90
17954;DHT22;9102;53.548;9.926;2023-04-28T04:47:27;6.00;99.90
17954;DHT22;9102;53.548;9.926;2023-04-28T04:49:55;6.00;99.90
17954;DHT22;9102;53.548;9.926;2023-04-28T04:52:22;6.10;99.90
17954;DHT22;9102;53.548;9.926;2023-04-28T04:54:49;6.10;99.90
17954;DHT22;9102;53.548;9.926;2023-04-28T04:57:16;6.20;99.90
17954;DHT22;9102;53.548;9.926;2023-04-28T04:59:43;6.20;99.90
17954;DHT22;9102;53.548;9.926;2023-04-28T05:02:10;6.20;99.90
17954;DHT22;9102;53.548;9.926;2023-04-28T05:04:37;6.30;99.90
17954;DHT22;9102;53.548;9.926;2023-04-28T05:07:05;6.30;99.90
17954;DHT22;9102;53.548;9.926;2023-04-28T05:09:32;6.30;99.90
17954;DHT22;9102;53.548;9.926;2023-04-28T05:11:59;6.40;99.90
17954;DHT22;9102;53.548;9.926;2023-04-28T05:14:26;6.50;99.90
17954;DHT22;9102;53.548;9.926;2023-04-28T05:16:53;6.50;99.90
17954;DHT22;9102;53.548;9.926;2023-04-28T05:19:20;6.60;99.90
17954;DHT22;9102;53.548;9.926;2023-04-28T05:21:47;6.60;99.90
17954;DHT22;9102;53.548;9.926;2023-04-28T05:24:16;6.60;99.90
17954;DHT22;9102;53.548;9.926;2023-04-28T05:26:42;6.60;99.90
17954;DHT22;9102;53.548;9.926;2023-04-28T05:29:09;6.70;99.90
17954;DHT22;9102;53.548;9.926;2023-04-28T05:31:36;6.70;99.90
17954;DHT22;9102;53.548;9.926;2023-04-28T05:34:05;6.80;99.90
17954;DHT22;9102;53.548;9.926;2023-04-28T05:36:32;6.80;99.90
17954;DHT22;9102;53.548;9.926;2023-04-28T05:38:59;6.80;99.90
17954;DHT22;9102;53.548;9.926;2023-04-28T05:41:28;7.00;99.90
17954;DHT22;9102;53.548;9.926;2023-04-28T05:43:55;7.00;99.90
17954;DHT22;9102;53.548;9.926;2023-04-28T05:46:22;7.00;99.90
17954;DHT22;9102;53.548;9.926;2023-04-28T05:48:49;7.10;99.90
17954;DHT22;9102;53.548;9.926;2023-04-28T05:51:16;7.20;99.90
17954;DHT22;9102;53.548;9.926;2023-04-28T05:53:42;7.30;99.90
17954;DHT22;9102;53.548;9.926;2023-04-28T05:56:13;7.30;99.90
17954;DHT22;9102;53.548;9.926;2023-04-28T05:58:44;7.50;99.90
17954;DHT22;9102;53.548;9.926;2023-04-28T06:01:11;7.40;99.90
17954;DHT22;9102;53.548;9.926;2023-04-28T06:03:38;7.40;99.90
17954;DHT22;9102;53.548;9.926;2023-04-28T06:06:06;7.60;99.90
17954;DHT22;9102;53.548;9.926;2023-04-28T06:08:33;7.50;99.90
17954;DHT22;9102;53.548;9.926;2023-04-28T06:11:00;7.50;99.90
17954;DHT22;9102;53.548;9.926;2023-04-28T06:13:27;7.60;99.90
17954;DHT22;9102;53.548;9.926;2023-04-28T06:15:55;7.60;99.90
17954;DHT22;9102;53.548;9.926;2023-04-28T06:18:22;7.60;99.90
17954;DHT22;9102;53.548;9.926;2023-04-28T06:20:50;7.90;99.90
17954;DHT22;9102;53.548;9.926;2023-04-28T06:23:17;7.80;99.90
17954;DHT22;9102;53.548;9.926;2023-04-28T06:25:44;7.80;99.90
17954;DHT22;9102;53.548;9.926;2023-04-28T06:28:10;7.90;99.90
17954;DHT22;9102;53.548;9.926;2023-04-28T06:30:39;8.10;99.90
17954;DHT22;9102;53.548;9.926;2023-04-28T06:33:07;8.10;99.90
17954;DHT22;9102;53.548;9.926;2023-04-28T06:35:34;8.20;99.90
17954;DHT22;9102;53.548;9.926;2023-04-28T06:38:03;8.30;99.90
17954;DHT22;9102;53.548;9.926;2023-04-28T06:40:30;8.40;99.90
17954;DHT22;9102;53.548;9.926;2023-04-28T06:42:57;8.50;99.90
17954;DHT22;9102;53.548;9.926;2023-04-28T06:45:24;8.50;99.90
17954;DHT22;9102;53.548;9.926;2023-04-28T06:47:53;8.60;99.90
17954;DHT22;9102;53.548;9.926;2023-04-28T06:50:23;8.60;99.90
17954;DHT22;9102;53.548;9.926;2023-04-28T06:52:50;8.80;99.90
17954;DHT22;9102;53.548;9.926;2023-04-28T06:55:17;8.90;99.90
17954;DHT22;9102;53.548;9.926;2023-04-28T06:57:43;9.00;99.90
17954;DHT22;9102;53.548;9.926;2023-04-28T07:00:12;9.00;99.90
17954;DHT22;9102;53.548;9.926;2023-04-28T07:02:39;9.10;99.90
17954;DHT22;9102;53.548;9.926;2023-04-28T07:05:07;9.10;99.90
17954;DHT22;9102;53.548;9.926;2023-04-28T07:07:35;9.20;99.90
17954;DHT22;9102;53.548;9.926;2023-04-28T07:10:04;9.20;99.90
17954;DHT22;9102;53.548;9.926;2023-04-28T07:12:34;9.20;99.90
17954;DHT22;9102;53.548;9.926;2023-04-28T07:15:01;9.20;99.90
17954;DHT22;9102;53.548;9.926;2023-04-28T07:17:28;9.20;99.90
17954;DHT22;9102;53.548;9.926;2023-04-28T07:19:54;9.10;99.90
17954;DHT22;9102;53.548;9.926;2023-04-28T07:22:21;9.20;99.90
17954;DHT22;9102;53.548;9.926;2023-04-28T07:24:49;9.40;99.90
17954;DHT22;9102;53.548;9.926;2023-04-28T07:27:16;9.40;99.90
17954;DHT22;9102;53.548;9.926;2023-04-28T07:29:43;9.60;99.90
17954;DHT22;9102;53.548;9.926;2023-04-28T07:32:10;9.70;99.90
17954;DHT22;9102;53.548;9.926;2023-04-28T07:34:37;9.80;99.90
17954;DHT22;9102;53.548;9.926;2023-04-28T07:37:10;9.80;99.90
17954;DHT22;9102;53.548;9.926;2023-04-28T07:39:37;9.80;99.90
17954;DHT22;9102;53.548;9.926;2023-04-28T07:42:09;9.90;99.90
17954;DHT22;9102;53.548;9.926;2023-04-28T07:44:36;10.10;99.90
17954;DHT22;9102;53.548;9.926;2023-04-28T07:47:07;10.30;99.90
17954;DHT22;9102;53.548;9.926;2023-04-28T07:49:34;10.40;99.90
17954;DHT22;9102;53.548;9.926;2023-04-28T07:52:03;10.30;99.90
17954;DHT22;9102;53.548;9.926;2023-04-28T07:54:30;10.30;99.90
17954;DHT22;9102;53.548;9.926;2023-04-28T07:56:57;10.40;99.90
17954;DHT22;9102;53.548;9.926;2023-04-28T07:59:25;10.50;99.90
17954;DHT22;9102;53.548;9.926;2023-04-28T08:01:52;10.50;99.90
17954;DHT22;9102;53.548;9.926;2023-04-28T08:04:19;10.70;99.90
17954;DHT22;9102;53.548;9.926;2023-04-28T08:06:45;10.80;99.90
17954;DHT22;9102;53.548;9.926;2023-04-28T08:09:12;10.90;99.90
17954;DHT22;9102;53.548;9.926;2023-04-28T08:11:39;10.80;99.90
17954;DHT22;9102;53.548;9.926;2023-04-28T08:14:06;11.00;99.90
17954;DHT22;9102;53.548;9.926;2023-04-28T08:16:34;11.20;99.90
17954;DHT22;9102;53.548;9.926;2023-04-28T08:19:04;11.10;99.90
17954;DHT22;9102;53.548;9.926;2023-04-28T08:21:31;11.20;99.90
17954;DHT22;9102;53.548;9.926;2023-04-28T08:23:58;11.20;99.90
17954;DHT22;9102;53.548;9.926;2023-04-28T08:26:26;11.40;99.90
17954;DHT22;9102;53.548;9.926;2023-04-28T08:28:53;11.40;99.90
17954;DHT22;9102;53.548;9.926;2023-04-28T08:31:20;11.40;99.90
17954;DHT22;9102;53.548;9.926;2023-04-28T08:33:48;11.60;99.90
17954;DHT22;9102;53.548;9.926;2023-04-28T08:36:15;11.60;99.90
17954;DHT22;9102;53.548;9.926;2023-04-28T08:38:43;11.60;99.90
17954;DHT22;9102;53.548;9.926;2023-04-28T08:41:10;11.70;99.90
17954;DHT22;9102;53.548;9.926;2023-04-28T08:43:38;11.80;99.90
17954;DHT22;9102;53.548;9.926;2023-04-28T08:46:07;11.90;99.90
17954;DHT22;9102;53.548;9.926;2023-04-28T08:48:39;12.10;99.90
17954;DHT22;9102;53.548;9.926;2023-04-28T08:51:08;12.10;99.90
17954;DHT22;9102;53.548;9.926;2023-04-28T08:53:37;12.20;99.90
17954;DHT22;9102;53.548;9.926;2023-04-28T08:56:05;12.40;99.90
17954;DHT22;9102;53.548;9.926;2023-04-28T08:58:34;12.40;99.90
17954;DHT22;9102;53.548;9.926;2023-04-28T09:01:01;12.30;99.90
17954;DHT22;9102;53.548;9.926;2023-04-28T09:03:29;12.30;99.90
17954;DHT22;9102;53.548;9.926;2023-04-28T09:05:56;12.30;99.90
17954;DHT22;9102;53.548;9.926;2023-04-28T09:08:24;12.30;99.90
17954;DHT22;9102;53.548;9.926;2023-04-28T09:11:05;12.40;99.90
17954;DHT22;9102;53.548;9.926;2023-04-28T09:13:33;12.40;99.90
17954;DHT22;9102;53.548;9.926;2023-04-28T09:16:02;12.40;99.90
17954;DHT22;9102;53.548;9.926;2023-04-28T09:18:29;12.60;99.90
17954;DHT22;9102;53.548;9.926;2023-04-28T09:21:05;12.60;99.90
17954;DHT22;9102;53.548;9.926;2023-04-28T09:23:34;12.50;99.20
17954;DHT22;9102;53.548;9.926;2023-04-28T09:26:03;12.50;99.90
17954;DHT22;9102;53.548;9.926;2023-04-28T09:28:31;12.60;99.70
17954;DHT22;9102;53.548;9.926;2023-04-28T09:30:58;12.80;99.50
17954;DHT22;9102;53.548;9.926;2023-04-28T09:33:25;13.00;99.30
17954;DHT22;9102;53.548;9.926;2023-04-28T09:35:52;13.30;98.50
17954;DHT22;9102;53.548;9.926;2023-04-28T09:38:20;13.30;97.50
17954;DHT22;9102;53.548;9.926;2023-04-28T09:40:57;13.30;96.80
17954;DHT22;9102;53.548;9.926;2023-04-28T09:43:25;13.30;96.40
17954;DHT22;9102;53.548;9.926;2023-04-28T09:45:53;13.30;96.20
17954;DHT22;9102;53.548;9.926;2023-04-28T09:48:26;13.30;96.30
17954;DHT22;9102;53.548;9.926;2023-04-28T09:50:54;13.50;96.00
17954;DHT22;9102;53.548;9.926;2023-04-28T09:53:22;13.60;95.70
17954;DHT22;9102;53.548;9.926;2023-04-28T09:55:49;13.60;94.90
17954;DHT22;9102;53.548;9.926;2023-04-28T09:58:20;13.80;95.60
17954;DHT22;9102;53.548;9.926;2023-04-28T10:00:51;13.70;94.40
17954;DHT22;9102;53.548;9.926;2023-04-28T10:03:20;13.70;95.20
17954;DHT22;9102;53.548;9.926;2023-04-28T10:05:48;13.80;94.80
17954;DHT22;9102;53.548;9.926;2023-04-28T10:08:16;13.80;94.60
17954;DHT22;9102;53.548;9.926;2023-04-28T10:10:44;14.00;94.50
17954;DHT22;9102;53.548;9.926;2023-04-28T10:13:13;14.30;94.20
17954;DHT22;9102;53.548;9.926;2023-04-28T10:15:42;14.20;93.20
17954;DHT22;9102;53.548;9.926;2023-04-28T10:18:10;14.10;93.40
17954;DHT22;9102;53.548;9.926;2023-04-28T10:20:39;14.20;93.30
17954;DHT22;9102;53.548;9.926;2023-04-28T10:26:12;14.20;93.00
17954;DHT22;9102;53.548;9.926;2023-04-28T10:28:45;14.20;91.80
17954;DHT22;9102;53.548;9.926;2023-04-28T10:31:15;14.30;91.50
17954;DHT22;9102;53.548;9.926;2023-04-28T10:33:43;14.40;91.30
17954;DHT22;9102;53.548;9.926;2023-04-28T10:36:10;14.50;91.00
17954;DHT22;9102;53.548;9.926;2023-04-28T10:39:18;14.50;91.20
17954;DHT22;9102;53.548;9.926;2023-04-28T10:41:46;14.50;90.40
17954;DHT22;9102;53.548;9.926;2023-04-28T10:44:41;14.50;91.00
17954;DHT22;9102;53.548;9.926;2023-04-28T10:47:10;14.60;90.10
17954;DHT22;9102;53.548;9.926;2023-04-28T10:50:08;14.70;89.90
17954;DHT22;9102;53.548;9.926;2023-04-28T10:52:48;14.50;89.80
17954;DHT22;9102;53.548;9.926;2023-04-28T10:55:29;14.70;90.30
17954;DHT22;9102;53.548;9.926;2023-04-28T10:58:30;14.30;90.00
17954;DHT22;9102;53.548;9.926;2023-04-28T11:01:23;14.40;90.80
17954;DHT22;9102;53.548;9.926;2023-04-28T11:03:53;14.40;90.10
17954;DHT22;9102;53.548;9.926;2023-04-28T11:06:25;14.60;90.70
17954;DHT22;9102;53.548;9.926;2023-04-28T11:08:54;14.80;90.00
17954;DHT22;9102;53.548;9.926;2023-04-28T11:11:23;14.70;90.10
17954;DHT22;9102;53.548;9.926;2023-04-28T11:13:52;14.50;90.10
17954;DHT22;9102;53.548;9.926;2023-04-28T11:16:23;14.60;90.30
17954;DHT22;9102;53.548;9.926;2023-04-28T11:18:54;14.70;90.80
17954;DHT22;9102;53.548;9.926;2023-04-28T11:21:23;14.60;89.90
17954;DHT22;9102;53.548;9.926;2023-04-28T11:23:51;14.80;89.50
17954;DHT22;9102;53.548;9.926;2023-04-28T11:26:18;14.90;88.60
17954;DHT22;9102;53.548;9.926;2023-04-28T11:28:49;14.90;87.50
17954;DHT22;9102;53.548;9.926;2023-04-28T11:31:17;15.00;87.80
17954;DHT22;9102;53.548;9.926;2023-04-28T11:33:59;14.90;87.20
17954;DHT22;9102;53.548;9.926;2023-04-28T11:36:29;14.70;88.00
17954;DHT22;9102;53.548;9.926;2023-04-28T11:38:56;14.70;90.00
17954;DHT22;9102;53.548;9.926;2023-04-28T11:41:23;14.70;88.20
17954;DHT22;9102;53.548;9.926;2023-04-28T11:43:51;14.70;87.70
17954;DHT22;9102;53.548;9.926;2023-04-28T11:46:19;14.60;87.80
17954;DHT22;9102;53.548;9.926;2023-04-28T11:48:47;14.30;88.50
17954;DHT22;9102;53.548;9.926;2023-04-28T11:51:33;14.30;90.40
17954;DHT22;9102;53.548;9.926;2023-04-28T11:54:01;14.50;90.50
17954;DHT22;9102;53.548;9.926;2023-04-28T11:56:29;14.60;90.40
17954;DHT22;9102;53.548;9.926;2023-04-28T11:59:04;14.50;89.80
17954;DHT22;9102;53.548;9.926;2023-04-28T12:01:33;14.60;89.50
17954;DHT22;9102;53.548;9.926;2023-04-28T12:04:02;14.80;90.20
17954;DHT22;9102;53.548;9.926;2023-04-28T12:06:30;14.80;88.80
17954;DHT22;9102;53.548;9.926;2023-04-28T12:08:58;14.80;90.00
17954;DHT22;9102;53.548;9.926;2023-04-28T12:11:29;14.70;89.70
17954;DHT22;9102;53.548;9.926;2023-04-28T12:14:05;14.30;89.00
17954;DHT22;9102;53.548;9.926;2023-04-28T12:16:40;14.20;90.20
17954;DHT22;9102;53.548;9.926;2023-04-28T12:19:10;14.30;91.30
17954;DHT22;9102;53.548;9.926;2023-04-28T12:21:38;14.40;90.80
17954;DHT22;9102;53.548;9.926;2023-04-28T12:24:18;14.50;90.90
17954;DHT22;9102;53.548;9.926;2023-04-28T12:26:46;14.50;90.90
17954;DHT22;9102;53.548;9.926;2023-04-28T12:29:38;14.30;91.60
17954;DHT22;9102;53.548;9.926;2023-04-28T12:32:06;14.40;91.60
17954;DHT22;9102;53.548;9.926;2023-04-28T12:34:34;14.40;90.90
17954;DHT22;9102;53.548;9.926;2023-04-28T12:37:03;14.20;91.60
17954;DHT22;9102;53.548;9.926;2023-04-28T12:39:31;14.20;91.50
17954;DHT22;9102;53.548;9.926;2023-04-28T12:41:58;14.20;91.80
17954;DHT22;9102;53.548;9.926;2023-04-28T12:44:27;14.10;92.00
17954;DHT22;9102;53.548;9.926;2023-04-28T12:47:00;14.20;92.20
17954;DHT22;9102;53.548;9.926;2023-04-28T12:49:27;14.20;92.40
17954;DHT22;9102;53.548;9.926;2023-04-28T12:51:54;14.30;92.50
17954;DHT22;9102;53.548;9.926;2023-04-28T12:54:22;14.30;92.30
17954;DHT22;9102;53.548;9.926;2023-04-28T12:56:49;14.30;92.60
17954;DHT22;9102;53.548;9.926;2023-04-28T12:59:16;14.40;92.60
17954;DHT22;9102;53.548;9.926;2023-04-28T13:01:43;14.40;92.50
17954;DHT22;9102;53.548;9.926;2023-04-28T13:04:10;14.30;93.00
17954;DHT22;9102;53.548;9.926;2023-04-28T13:06:37;14.30;93.00
17954;DHT22;9102;53.548;9.926;2023-04-28T13:09:05;14.30;93.10
17954;DHT22;9102;53.548;9.926;2023-04-28T13:11:33;14.20;93.50
17954;DHT22;9102;53.548;9.926;2023-04-28T13:14:00;14.10;92.90
17954;DHT22;9102;53.548;9.926;2023-04-28T13:16:28;14.00;93.10
17954;DHT22;9102;53.548;9.926;2023-04-28T13:18:55;14.00;93.60
17954;DHT22;9102;53.548;9.926;2023-04-28T13:21:22;14.10;93.30
17954;DHT22;9102;53.548;9.926;2023-04-28T13:23:51;14.10;93.70
17954;DHT22;9102;53.548;9.926;2023-04-28T13:26:18;14.10;93.70
17954;DHT22;9102;53.548;9.926;2023-04-28T13:28:46;14.10;94.20
17954;DHT22;9102;53.548;9.926;2023-04-28T13:31:13;14.10;93.90
17954;DHT22;9102;53.548;9.926;2023-04-28T13:33:40;14.00;94.10
17954;DHT22;9102;53.548;9.926;2023-04-28T13:36:07;14.00;94.50
17954;DHT22;9102;53.548;9.926;2023-04-28T13:38:35;14.00;94.60
17954;DHT22;9102;53.548;9.926;2023-04-28T13:41:02;14.10;94.80
17954;DHT22;9102;53.548;9.926;2023-04-28T13:43:29;14.10;95.50
17954;DHT22;9102;53.548;9.926;2023-04-28T13:45:57;14.10;95.40
17954;DHT22;9102;53.548;9.926;2023-04-28T13:48:25;14.20;95.60
17954;DHT22;9102;53.548;9.926;2023-04-28T13:50:53;14.20;95.40
17954;DHT22;9102;53.548;9.926;2023-04-28T13:53:20;14.20;95.90
17954;DHT22;9102;53.548;9.926;2023-04-28T13:55:48;14.20;95.70
17954;DHT22;9102;53.548;9.926;2023-04-28T13:58:18;14.40;95.90
17954;DHT22;9102;53.548;9.926;2023-04-28T14:00:45;14.30;95.80
17954;DHT22;9102;53.548;9.926;2023-04-28T14:03:13;14.30;95.80
17954;DHT22;9102;53.548;9.926;2023-04-28T14:05:40;14.30;96.10
17954;DHT22;9102;53.548;9.926;2023-04-28T14:08:07;14.40;96.60
17954;DHT22;9102;53.548;9.926;2023-04-28T14:10:35;14.40;96.60
17954;DHT22;9102;53.548;9.926;2023-04-28T14:13:02;14.40;97.00
17954;DHT22;9102;53.548;9.926;2023-04-28T14:15:29;14.30;97.20
17954;DHT22;9102;53.548;9.926;2023-04-28T14:17:57;14.20;97.80
17954;DHT22;9102;53.548;9.926;2023-04-28T14:20:25;14.20;98.70
17954;DHT22;9102;53.548;9.926;2023-04-28T14:22:52;14.10;99.90
17954;DHT22;9102;53.548;9.926;2023-04-28T14:25:19;14.20;99.90
17954;DHT22;9102;53.548;9.926;2023-04-28T14:27:47;14.10;99.90
17954;DHT22;9102;53.548;9.926;2023-04-28T14:30:14;14.00;99.90
17954;DHT22;9102;53.548;9.926;2023-04-28T14:32:41;13.90;99.90
17954;DHT22;9102;53.548;9.926;2023-04-28T14:35:09;13.90;99.90
17954;DHT22;9102;53.548;9.926;2023-04-28T14:37:38;13.90;99.90
17954;DHT22;9102;53.548;9.926;2023-04-28T14:40:06;13.80;99.90
17954;DHT22;9102;53.548;9.926;2023-04-28T14:42:35;13.80;99.90
17954;DHT22;9102;53.548;9.926;2023-04-28T14:45:02;13.80;99.90
17954;DHT22;9102;53.548;9.926;2023-04-28T14:47:29;13.80;99.90
17954;DHT22;9102;53.548;9.926;2023-04-28T14:49:56;13.80;99.90
17954;DHT22;9102;53.548;9.926;2023-04-28T14:52:24;13.90;99.90
17954;DHT22;9102;53.548;9.926;2023-04-28T14:54:54;13.80;99.90
17954;DHT22;9102;53.548;9.926;2023-04-28T14:57:22;13.90;99.90
17954;DHT22;9102;53.548;9.926;2023-04-28T14:59:48;14.00;99.90
17954;DHT22;9102;53.548;9.926;2023-04-28T15:02:16;13.90;99.90
17954;DHT22;9102;53.548;9.926;2023-04-28T15:04:45;13.80;99.90
17954;DHT22;9102;53.548;9.926;2023-04-28T15:07:11;13.80;99.90
17954;DHT22;9102;53.548;9.926;2023-04-28T15:09:39;13.80;99.90
17954;DHT22;9102;53.548;9.926;2023-04-28T15:12:07;13.70;99.90
17954;DHT22;9102;53.548;9.926;2023-04-28T15:14:34;13.70;99.90
17954;DHT22;9102;53.548;9.926;2023-04-28T15:17:01;13.70;99.90
17954;DHT22;9102;53.548;9.926;2023-04-28T15:19:28;13.70;99.90
17954;DHT22;9102;53.548;9.926;2023-04-28T15:21:55;13.70;99.90
17954;DHT22;9102;53.548;9.926;2023-04-28T15:24:22;13.80;99.90
17954;DHT22;9102;53.548;9.926;2023-04-28T15:26:49;13.80;99.90
17954;DHT22;9102;53.548;9.926;2023-04-28T15:29:17;13.80;99.90
17954;DHT22;9102;53.548;9.926;2023-04-28T15:31:44;13.80;99.90
17954;DHT22;9102;53.548;9.926;2023-04-28T15:34:15;13.60;99.90
17954;DHT22;9102;53.548;9.926;2023-04-28T15:36:42;13.30;99.90
17954;DHT22;9102;53.548;9.926;2023-04-28T15:39:09;13.20;99.90
17954;DHT22;9102;53.548;9.926;2023-04-28T15:41:36;13.10;99.90
17954;DHT22;9102;53.548;9.926;2023-04-28T15:44:03;13.10;99.90
17954;DHT22;9102;53.548;9.926;2023-04-28T15:46:31;13.20;99.90
17954;DHT22;9102;53.548;9.926;2023-04-28T15:48:58;13.20;99.90
17954;DHT22;9102;53.548;9.926;2023-04-28T15:51:24;13.30;99.90
17954;DHT22;9102;53.548;9.926;2023-04-28T15:53:51;13.40;99.90
17954;DHT22;9102;53.548;9.926;2023-04-28T15:56:20;13.50;99.90
17954;DHT22;9102;53.548;9.926;2023-04-28T15:58:48;13.60;99.90
17954;DHT22;9102;53.548;9.926;2023-04-28T16:01:15;13.60;99.90
17954;DHT22;9102;53.548;9.926;2023-04-28T16:03:44;13.60;99.90